createdAt,value
2018-12-12T00:00:52.345Z,23.33
2018-12-12T00:03:19.816Z,22.60
2018-12-12T00:05:47.282Z,22.57
2018-12-12T00:08:14.713Z,24.00
2018-12-12T00:10:42.163Z,22.43
2018-12-12T00:13:09.623Z,21.87
2018-12-12T00:15:37.130Z,23.17
2018-12-12T00:18:04.556Z,23.43
2018-12-12T00:20:31.980Z,22.70
2018-12-12T00:22:59.438Z,22.43
2018-12-12T00:25:35.693Z,22.13
2018-12-12T00:28:03.081Z,23.80
2018-12-12T00:30:30.550Z,25.30
2018-12-12T00:32:58.023Z,22.60
2018-12-12T00:35:25.517Z,20.87
2018-12-12T00:37:53.047Z,23.93
2018-12-12T00:40:20.501Z,23.13
2018-12-12T00:42:47.946Z,24.33
2018-12-12T00:45:15.386Z,22.93
2018-12-12T00:47:42.837Z,24.07
2018-12-12T00:50:11.424Z,23.90
2018-12-12T00:52:38.946Z,21.77
2018-12-12T00:55:06.401Z,23.60
2018-12-12T00:57:33.881Z,23.50
2018-12-12T01:00:01.379Z,22.47
2018-12-12T01:02:28.860Z,20.60
2018-12-12T01:04:56.330Z,22.77
2018-12-12T01:07:23.821Z,24.47
2018-12-12T01:09:51.304Z,24.60
2018-12-12T01:12:18.851Z,22.67
2018-12-12T01:14:46.236Z,24.27
2018-12-12T01:17:13.711Z,24.50
2018-12-12T01:19:41.192Z,24.30
2018-12-12T01:22:08.679Z,24.40
2018-12-12T01:24:37.288Z,22.87
2018-12-12T01:27:04.772Z,23.40
2018-12-12T01:29:32.204Z,20.20
2018-12-12T01:31:59.665Z,21.83
2018-12-12T01:34:27.118Z,20.47
2018-12-12T01:36:54.573Z,19.50
2018-12-12T01:39:21.990Z,18.63
2018-12-12T01:41:49.488Z,21.03
2018-12-12T01:44:16.935Z,18.73
2018-12-12T01:46:44.439Z,21.53
2018-12-12T01:49:11.905Z,20.60
2018-12-12T01:51:39.388Z,21.43
2018-12-12T01:54:08.458Z,18.20
2018-12-12T01:56:35.797Z,19.90
2018-12-12T01:59:03.223Z,18.33
2018-12-12T02:01:30.649Z,19.20
2018-12-12T02:03:58.501Z,19.90
2018-12-12T02:06:25.945Z,19.07
2018-12-12T02:08:53.380Z,19.17
2018-12-12T02:11:20.831Z,17.73
2018-12-12T02:13:51.535Z,17.93
2018-12-12T02:16:19.033Z,17.40
2018-12-12T02:18:46.506Z,18.30
2018-12-12T02:21:13.936Z,19.23
2018-12-12T02:23:41.388Z,20.20
2018-12-12T02:26:08.838Z,17.80
2018-12-12T02:28:36.352Z,21.13
2018-12-12T02:31:03.827Z,20.27
2018-12-12T02:33:31.313Z,23.70
2018-12-12T02:35:58.831Z,22.27
2018-12-12T02:38:26.320Z,25.37
2018-12-12T02:40:53.707Z,24.67
2018-12-12T02:43:21.169Z,22.60
2018-12-12T02:45:49.707Z,21.57
2018-12-12T02:48:17.215Z,21.17
2018-12-12T02:50:44.654Z,20.57
2018-12-12T02:53:12.185Z,25.40
2018-12-12T02:55:39.563Z,26.53
2018-12-12T02:58:07.022Z,23.13
2018-12-12T03:00:34.508Z,20.90
2018-12-12T03:03:01.990Z,22.20
2018-12-12T03:05:29.478Z,19.83
2018-12-12T03:07:56.910Z,19.23
2018-12-12T03:10:24.362Z,22.20
2018-12-12T03:12:51.824Z,19.93
2018-12-12T03:15:19.255Z,21.63
2018-12-12T03:17:46.679Z,25.77
2018-12-12T03:20:14.139Z,21.30
2018-12-12T03:25:37.187Z,25.80
2018-12-12T03:27:58.915Z,21.97
2018-12-12T03:30:28.840Z,20.77
2018-12-12T03:33:04.882Z,20.90
2018-12-12T03:35:35.045Z,21.20
2018-12-12T03:38:02.487Z,18.47
2018-12-12T03:40:51.319Z,20.23
2018-12-12T03:43:50.426Z,20.43
2018-12-12T03:46:17.881Z,19.93
2018-12-12T03:48:45.338Z,18.37
2018-12-12T03:51:12.756Z,19.53
2018-12-12T03:53:40.215Z,19.73
2018-12-12T03:56:07.655Z,19.70
2018-12-12T03:58:35.070Z,19.80
2018-12-12T04:01:02.558Z,18.40
2018-12-12T04:03:31.093Z,17.90
2018-12-12T04:05:58.543Z,18.27
2018-12-12T04:08:25.974Z,18.93
2018-12-12T04:10:53.468Z,18.10
2018-12-12T04:13:20.886Z,18.77
2018-12-12T04:15:48.352Z,17.50
2018-12-12T04:18:15.836Z,17.03
2018-12-12T04:20:43.360Z,17.73
2018-12-12T04:23:10.809Z,18.67
2018-12-12T04:25:38.266Z,17.33
2018-12-12T04:28:05.692Z,17.67
2018-12-12T04:30:33.174Z,16.90
2018-12-12T04:33:00.589Z,18.83
2018-12-12T04:35:28.013Z,20.33
2018-12-12T04:37:55.466Z,21.37
2018-12-12T04:40:22.911Z,20.43
2018-12-12T04:42:50.362Z,21.60
2018-12-12T04:45:17.801Z,22.43
2018-12-12T04:47:45.268Z,19.70
2018-12-12T04:50:12.687Z,23.53
2018-12-12T04:52:40.165Z,20.90
2018-12-12T04:55:07.614Z,21.17
2018-12-12T04:57:35.119Z,24.70
2018-12-12T05:00:02.559Z,23.57
2018-12-12T05:02:29.997Z,23.93
2018-12-12T05:04:57.438Z,24.23
2018-12-12T05:07:24.892Z,23.30
2018-12-12T05:09:52.349Z,26.37
2018-12-12T05:12:19.811Z,28.10
2018-12-12T05:14:47.288Z,28.50
2018-12-12T05:17:14.751Z,26.23
2018-12-12T05:19:42.215Z,27.50
2018-12-12T05:22:09.709Z,24.83
2018-12-12T05:24:37.121Z,25.00
2018-12-12T05:27:04.632Z,26.47
2018-12-12T05:29:32.049Z,21.90
2018-12-12T05:31:59.481Z,23.73
2018-12-12T05:34:26.987Z,22.97
2018-12-12T05:36:57.120Z,21.47
2018-12-12T05:39:24.548Z,19.43
2018-12-12T05:41:52.070Z,19.47
2018-12-12T05:44:19.526Z,19.97
2018-12-12T05:46:46.963Z,19.23
2018-12-12T05:49:14.432Z,19.60
2018-12-12T05:51:41.874Z,18.57
2018-12-12T05:54:09.353Z,19.63
2018-12-12T05:56:36.813Z,20.93
2018-12-12T05:59:04.259Z,19.97
2018-12-12T06:01:31.766Z,18.57
2018-12-12T06:03:59.178Z,19.73
2018-12-12T06:06:26.606Z,19.13
2018-12-12T06:08:54.080Z,21.43
2018-12-12T06:11:21.498Z,25.87
2018-12-12T06:13:48.927Z,22.23
2018-12-12T06:16:16.356Z,19.03
2018-12-12T06:18:43.801Z,24.10
2018-12-12T06:21:11.255Z,20.63
2018-12-12T06:23:38.701Z,19.70
2018-12-12T06:26:06.198Z,20.00
2018-12-12T06:28:33.630Z,20.10
2018-12-12T06:31:01.120Z,18.83
2018-12-12T06:33:28.564Z,19.07
2018-12-12T06:35:56.022Z,17.27
2018-12-12T06:38:23.507Z,18.33
2018-12-12T06:40:50.970Z,20.23
2018-12-12T06:43:18.372Z,18.57
2018-12-12T06:45:45.800Z,19.00
2018-12-12T06:48:13.262Z,18.40
2018-12-12T06:50:41.828Z,20.23
2018-12-12T06:53:09.344Z,19.50
2018-12-12T06:55:36.769Z,18.73
2018-12-12T06:58:04.217Z,18.27
2018-12-12T07:00:31.713Z,17.70
2018-12-12T07:02:59.218Z,20.07
2018-12-12T07:05:26.703Z,17.80
2018-12-12T07:07:54.208Z,19.90
2018-12-12T07:10:21.651Z,18.67
2018-12-12T07:12:49.096Z,22.63
2018-12-12T07:15:16.573Z,20.87
2018-12-12T07:17:44.011Z,23.33
2018-12-12T07:20:11.483Z,24.60
2018-12-12T07:22:38.934Z,25.63
2018-12-12T07:25:06.374Z,21.63
2018-12-12T07:27:33.821Z,25.90
2018-12-12T07:30:01.247Z,23.20
2018-12-12T07:32:28.699Z,22.30
2018-12-12T07:34:56.129Z,22.67
2018-12-12T07:37:23.545Z,21.50
2018-12-12T07:39:51.028Z,21.40
2018-12-12T07:42:18.482Z,20.40
2018-12-12T07:44:45.936Z,18.50
2018-12-12T07:47:14.430Z,20.50
2018-12-12T07:49:40.846Z,20.67
2018-12-12T07:52:08.287Z,21.63
2018-12-12T07:54:35.743Z,23.53
2018-12-12T07:57:03.172Z,19.90
2018-12-12T07:59:30.630Z,21.20
2018-12-12T08:01:58.076Z,18.60
2018-12-12T08:04:26.691Z,20.13
2018-12-12T08:06:54.133Z,19.93
2018-12-12T08:09:21.614Z,19.17
2018-12-12T08:11:49.132Z,25.53
2018-12-12T08:14:16.614Z,25.20
2018-12-12T08:16:44.049Z,25.27
2018-12-12T08:19:11.534Z,30.00
2018-12-12T08:21:38.956Z,34.80
2018-12-12T08:24:06.376Z,40.40
2018-12-12T08:26:33.843Z,41.03
2018-12-12T08:29:01.312Z,36.00
2018-12-12T08:31:28.735Z,25.53
2018-12-12T08:33:56.201Z,43.93
2018-12-12T08:36:23.620Z,39.30
2018-12-12T08:38:51.076Z,45.87
2018-12-12T08:41:18.525Z,30.77
2018-12-12T08:43:45.977Z,25.83
2018-12-12T08:46:13.445Z,31.60
2018-12-12T08:48:40.868Z,38.67
2018-12-12T08:51:08.374Z,41.63
2018-12-12T08:53:35.780Z,39.27
2018-12-12T08:56:03.474Z,40.33
2018-12-12T08:58:30.742Z,25.77
2018-12-12T09:00:58.148Z,33.00
2018-12-12T09:03:25.592Z,31.37
2018-12-12T09:05:53.055Z,27.37
2018-12-12T09:08:20.474Z,26.17
2018-12-12T09:10:47.927Z,33.67
2018-12-12T09:13:15.464Z,26.77
2018-12-12T09:15:42.893Z,27.80
2018-12-12T09:18:10.335Z,23.97
2018-12-12T09:20:37.797Z,28.40
2018-12-12T09:23:05.388Z,36.57
2018-12-12T09:25:32.791Z,26.37
2018-12-12T09:28:00.235Z,35.60
2018-12-12T09:30:27.686Z,27.13
2018-12-12T09:32:55.126Z,36.60
2018-12-12T09:35:22.581Z,40.27
2018-12-12T09:37:50.009Z,43.37
2018-12-12T09:40:17.533Z,30.30
2018-12-12T09:42:44.962Z,36.13
2018-12-12T09:45:12.443Z,27.87
2018-12-12T09:47:39.872Z,29.83
2018-12-12T09:50:07.360Z,38.43
2018-12-12T09:52:34.834Z,29.93
2018-12-12T09:55:02.374Z,34.07
2018-12-12T09:57:29.855Z,25.97
2018-12-12T09:59:57.337Z,29.60
2018-12-12T10:02:25.046Z,35.47
2018-12-12T10:04:52.562Z,43.60
2018-12-12T10:07:20.029Z,27.30
2018-12-12T10:09:47.508Z,37.13
2018-12-12T10:12:15.030Z,31.33
2018-12-12T10:14:42.494Z,33.53
2018-12-12T10:17:10.024Z,35.63
2018-12-12T10:19:37.444Z,48.03
2018-12-12T10:22:05.059Z,37.93
2018-12-12T10:24:32.564Z,33.23
2018-12-12T10:26:59.959Z,33.20
2018-12-12T10:29:27.430Z,33.87
2018-12-12T10:31:54.895Z,35.20
2018-12-12T10:34:22.692Z,35.97
2018-12-12T10:36:50.201Z,35.60
2018-12-12T10:39:17.628Z,53.17
2018-12-12T10:41:45.103Z,39.73
2018-12-12T10:44:12.583Z,44.80
2018-12-12T10:46:40.076Z,62.77
2018-12-12T10:49:07.518Z,49.10
2018-12-12T10:51:34.973Z,43.63
2018-12-12T10:54:02.488Z,46.20
2018-12-12T10:56:30.929Z,46.57
2018-12-12T10:58:58.377Z,54.23
2018-12-12T11:01:28.619Z,44.43
2018-12-12T11:03:56.059Z,50.23
2018-12-12T11:06:23.511Z,53.33
2018-12-12T11:08:51.059Z,55.87
2018-12-12T11:11:18.598Z,51.93
2018-12-12T11:13:46.022Z,57.27
2018-12-12T11:16:13.530Z,56.27
2018-12-12T11:18:41.054Z,54.20
2018-12-12T11:21:08.541Z,47.10
2018-12-12T11:23:36.011Z,42.77
2018-12-12T11:26:03.428Z,35.97
2018-12-12T11:28:30.888Z,33.60
2018-12-12T11:30:58.349Z,35.77
2018-12-12T11:33:25.822Z,35.13
2018-12-12T11:35:53.281Z,35.50
2018-12-12T11:38:21.751Z,36.70
2018-12-12T11:40:49.208Z,37.73
2018-12-12T11:43:16.660Z,34.93
2018-12-12T11:45:44.119Z,28.90
2018-12-12T11:48:11.895Z,26.47
2018-12-12T11:50:40.529Z,34.37
2018-12-12T11:53:07.985Z,31.27
2018-12-12T11:55:35.428Z,35.93
2018-12-12T11:58:03.911Z,33.00
2018-12-12T12:00:32.692Z,49.07
2018-12-12T12:03:00.112Z,40.63
2018-12-12T12:05:27.978Z,39.77
2018-12-12T12:07:57.409Z,42.30
2018-12-12T12:10:26.006Z,36.67
2018-12-12T12:12:53.501Z,39.03
2018-12-12T12:15:24.312Z,33.13
2018-12-12T12:17:51.804Z,43.07
2018-12-12T12:20:19.232Z,41.90
2018-12-12T12:22:46.702Z,41.17
2018-12-12T12:25:14.197Z,40.57
2018-12-12T12:27:41.656Z,34.83
2018-12-12T12:30:10.667Z,37.97
2018-12-12T12:32:38.041Z,45.03
2018-12-12T12:35:05.560Z,41.00
2018-12-12T12:37:33.014Z,42.90
2018-12-12T12:40:00.583Z,46.10
2018-12-12T12:42:28.030Z,49.73
2018-12-12T12:44:58.326Z,44.97
2018-12-12T12:47:25.812Z,51.60
2018-12-12T12:49:53.293Z,44.27
2018-12-12T12:52:22.223Z,49.53
2018-12-12T12:54:50.738Z,51.50
2018-12-12T12:57:18.170Z,59.27
2018-12-12T12:59:45.749Z,48.43
2018-12-12T13:02:13.177Z,49.90
2018-12-12T13:04:40.629Z,44.53
2018-12-12T13:07:08.351Z,47.20
2018-12-12T13:09:35.879Z,45.87
2018-12-12T13:12:03.357Z,48.97
2018-12-12T13:14:30.683Z,45.47
2018-12-12T13:16:58.141Z,48.07
2018-12-12T13:19:25.583Z,44.60
2018-12-12T13:21:53.066Z,49.57
2018-12-12T13:24:20.493Z,49.83
2018-12-12T13:26:53.377Z,47.23
2018-12-12T13:29:15.421Z,50.27
2018-12-12T13:31:42.848Z,56.53
2018-12-12T13:34:16.287Z,45.57
2018-12-12T13:36:38.797Z,56.10
2018-12-12T13:39:06.256Z,50.40
2018-12-12T13:41:33.725Z,51.03
2018-12-12T13:44:02.719Z,58.53
2018-12-12T13:46:30.207Z,56.67
2018-12-12T13:48:57.629Z,54.07
2018-12-12T13:51:30.453Z,60.40
2018-12-12T13:53:57.946Z,59.23
2018-12-12T13:56:25.415Z,67.97
2018-12-12T13:58:52.860Z,64.43
2018-12-12T14:01:23.197Z,56.57
2018-12-12T14:03:50.669Z,62.37
2018-12-12T14:06:18.118Z,62.60
2018-12-12T14:08:45.595Z,65.83
2018-12-12T14:11:13.021Z,69.50
2018-12-12T14:13:40.497Z,68.67
2018-12-12T14:16:07.945Z,62.90
2018-12-12T14:18:35.359Z,72.97
2018-12-12T14:21:02.785Z,75.03
2018-12-12T14:23:30.279Z,71.10
2018-12-12T14:26:09.125Z,65.67
2018-12-12T14:28:36.621Z,69.17
2018-12-12T14:31:04.055Z,69.93
2018-12-12T14:33:31.529Z,69.27
2018-12-12T14:36:01.597Z,70.70
2018-12-12T14:38:30.391Z,75.07
2018-12-12T14:40:57.857Z,75.53
2018-12-12T14:43:25.337Z,80.33
2018-12-12T14:45:52.809Z,73.63
2018-12-12T14:48:21.224Z,80.23
2018-12-12T14:50:48.702Z,80.83
2018-12-12T14:53:16.213Z,72.60
2018-12-12T14:55:43.699Z,76.07
2018-12-12T14:58:11.165Z,69.60
2018-12-12T15:00:38.647Z,67.73
2018-12-12T15:03:06.127Z,60.90
2018-12-12T15:05:33.565Z,64.10
2018-12-12T15:08:00.976Z,68.63
2018-12-12T15:10:28.457Z,63.50
2018-12-12T15:12:55.979Z,64.03
2018-12-12T15:15:23.644Z,68.30
2018-12-12T15:17:51.071Z,69.37
2018-12-12T15:20:18.531Z,64.80
2018-12-12T15:22:45.959Z,67.57
2018-12-12T15:25:13.460Z,63.00
2018-12-12T15:27:40.893Z,63.23
2018-12-12T15:30:08.351Z,61.33
2018-12-12T15:32:35.804Z,63.83
2018-12-12T15:35:03.238Z,63.93
2018-12-12T15:37:30.700Z,61.67
2018-12-12T15:39:58.159Z,66.37
2018-12-12T15:42:25.606Z,61.57
2018-12-12T15:44:53.027Z,64.07
2018-12-12T15:47:20.499Z,64.00
2018-12-12T15:49:47.913Z,66.50
2018-12-12T15:52:15.365Z,61.60
2018-12-12T15:54:42.807Z,63.70
2018-12-12T15:57:10.217Z,64.43
2018-12-12T15:59:37.648Z,65.10
2018-12-12T16:02:05.108Z,71.10
2018-12-12T16:04:32.549Z,66.47
2018-12-12T16:07:00.026Z,73.70
2018-12-12T16:09:27.480Z,73.87
2018-12-12T16:11:54.934Z,68.13
2018-12-12T16:14:22.356Z,67.83
2018-12-12T16:16:49.794Z,68.30
2018-12-12T16:19:17.232Z,63.47
2018-12-12T16:21:44.684Z,68.27
2018-12-12T16:24:12.143Z,67.23
2018-12-12T16:26:39.595Z,74.20
2018-12-12T16:29:07.028Z,66.30
2018-12-12T16:31:34.453Z,65.40
2018-12-12T16:34:01.901Z,67.83
2018-12-12T16:36:29.298Z,67.57
2018-12-12T16:38:56.788Z,64.10
2018-12-12T16:41:24.178Z,63.67
2018-12-12T16:43:51.631Z,72.87
2018-12-12T16:46:19.083Z,65.50
2018-12-12T16:48:46.526Z,58.37
2018-12-12T16:51:13.927Z,70.53
2018-12-12T16:53:41.367Z,58.23
2018-12-12T16:56:08.850Z,66.33
2018-12-12T16:58:36.216Z,65.73
2018-12-12T17:01:03.658Z,63.93
2018-12-12T17:03:31.070Z,62.47
2018-12-12T17:05:58.510Z,62.10
2018-12-12T17:08:25.965Z,63.27
2018-12-12T17:10:53.381Z,69.00
2018-12-12T17:13:20.779Z,63.50
2018-12-12T17:15:48.209Z,65.17
2018-12-12T17:18:15.668Z,72.20
2018-12-12T17:20:43.095Z,66.53
2018-12-12T17:23:10.522Z,70.83
2018-12-12T17:25:37.960Z,70.03
2018-12-12T17:28:05.384Z,65.87
2018-12-12T17:30:32.869Z,73.10
2018-12-12T17:33:00.258Z,69.43
2018-12-12T17:35:27.696Z,72.50
2018-12-12T17:37:55.117Z,64.43
2018-12-12T17:40:22.576Z,60.83
2018-12-12T17:42:50.010Z,55.03
2018-12-12T17:45:17.452Z,61.37
2018-12-12T17:47:44.890Z,60.90
2018-12-12T17:50:12.311Z,63.00
2018-12-12T17:52:39.772Z,66.37
2018-12-12T17:55:07.492Z,61.20
2018-12-12T17:57:34.866Z,58.37
2018-12-12T18:00:02.338Z,53.10
2018-12-12T18:02:29.757Z,54.70
2018-12-12T18:04:57.209Z,52.50
2018-12-12T18:07:24.727Z,52.47
2018-12-12T18:09:52.162Z,52.97
2018-12-12T18:12:19.623Z,48.93
2018-12-12T18:14:47.078Z,52.07
2018-12-12T18:17:14.512Z,45.27
2018-12-12T18:19:41.947Z,44.07
2018-12-12T18:22:09.410Z,47.10
2018-12-12T18:24:36.829Z,46.97
2018-12-12T18:27:04.268Z,49.23
2018-12-12T18:29:31.727Z,48.00
2018-12-12T18:31:59.154Z,42.73
2018-12-12T18:34:26.602Z,38.90
2018-12-12T18:36:54.042Z,40.00
2018-12-12T18:39:22.776Z,36.17
2018-12-12T18:41:50.217Z,35.83
2018-12-12T18:44:17.643Z,34.30
2018-12-12T18:46:45.092Z,32.73
2018-12-12T18:49:12.584Z,30.87
2018-12-12T18:51:39.929Z,31.90
2018-12-12T18:54:07.410Z,31.97
2018-12-12T18:56:34.813Z,30.37
2018-12-12T18:59:02.367Z,30.13
2018-12-12T19:01:29.729Z,29.33
2018-12-12T19:03:57.197Z,28.23
2018-12-12T19:06:24.603Z,28.63
2018-12-12T19:08:52.060Z,28.07
2018-12-12T19:11:19.483Z,28.90
2018-12-12T19:13:46.937Z,26.53
2018-12-12T19:16:14.387Z,26.63
2018-12-12T19:18:41.874Z,24.00
2018-12-12T19:21:09.407Z,25.33
2018-12-12T19:23:36.931Z,24.87
2018-12-12T19:26:06.854Z,25.17
2018-12-12T19:28:34.275Z,24.13
2018-12-12T19:31:01.716Z,25.20
2018-12-12T19:33:29.141Z,25.70
2018-12-12T19:35:56.578Z,24.73
2018-12-12T19:38:24.427Z,24.27
2018-12-12T19:40:51.865Z,25.10
2018-12-12T19:43:21.715Z,26.50
2018-12-12T19:45:49.167Z,26.70
2018-12-12T19:48:16.584Z,27.90
2018-12-12T19:50:44.017Z,29.50
2018-12-12T19:53:11.450Z,28.53
2018-12-12T19:55:38.898Z,29.67
2018-12-12T19:58:06.339Z,29.70
2018-12-12T20:00:33.763Z,29.43
2018-12-12T20:03:01.208Z,28.00
2018-12-12T20:05:28.660Z,29.57
2018-12-12T20:07:56.104Z,28.67
2018-12-12T20:10:23.528Z,28.27
2018-12-12T20:12:50.962Z,29.13
2018-12-12T20:15:36.538Z,28.03
2018-12-12T20:18:03.995Z,29.23
2018-12-12T20:20:31.408Z,30.40
2018-12-12T20:22:58.874Z,30.77
2018-12-12T20:25:26.334Z,28.03
2018-12-12T20:27:53.756Z,29.70
2018-12-12T20:30:21.193Z,26.83
2018-12-12T20:32:48.652Z,28.80
2018-12-12T20:35:16.087Z,29.13
2018-12-12T20:37:43.532Z,28.67
2018-12-12T20:40:10.990Z,29.00
2018-12-12T20:42:38.420Z,31.20
2018-12-12T20:45:05.864Z,31.13
2018-12-12T20:47:33.297Z,31.57
2018-12-12T20:50:00.776Z,30.87
2018-12-12T20:52:28.218Z,29.70
2018-12-12T20:54:58.095Z,29.50
2018-12-12T20:57:25.581Z,32.23
2018-12-12T20:59:53.004Z,33.07
2018-12-12T21:02:20.415Z,32.30
2018-12-12T21:04:47.848Z,30.60
2018-12-12T21:07:15.408Z,31.93
2018-12-12T21:09:42.848Z,30.70
2018-12-12T21:12:10.264Z,31.87
2018-12-12T21:14:37.730Z,30.63
2018-12-12T21:17:05.128Z,29.83
2018-12-12T21:19:32.627Z,28.57
2018-12-12T21:22:00.070Z,31.43
2018-12-12T21:24:27.458Z,29.90
2018-12-12T21:26:54.903Z,30.67
2018-12-12T21:29:22.349Z,30.73
2018-12-12T21:31:49.819Z,32.97
2018-12-12T21:34:17.249Z,32.80
2018-12-12T21:36:44.684Z,35.07
2018-12-12T21:39:12.145Z,33.60
2018-12-12T21:41:42.189Z,32.93
2018-12-12T21:44:18.815Z,31.13
2018-12-12T21:46:46.243Z,33.03
2018-12-12T21:49:14.354Z,34.53
2018-12-12T21:51:41.794Z,32.67
2018-12-12T21:54:20.461Z,35.67
2018-12-12T21:57:00.277Z,36.67
2018-12-12T21:59:27.723Z,35.77
2018-12-12T22:01:55.141Z,38.93
2018-12-12T22:04:22.608Z,36.93
2018-12-12T22:06:50.066Z,39.40
2018-12-12T22:09:20.045Z,38.90
2018-12-12T22:11:47.490Z,39.87
2018-12-12T22:14:14.925Z,37.73
2018-12-12T22:16:42.408Z,36.40
2018-12-12T22:19:09.906Z,37.10
2018-12-12T22:21:37.329Z,36.03
2018-12-12T22:24:04.784Z,35.43
2018-12-12T22:26:32.205Z,38.90
2018-12-12T22:28:59.712Z,36.30
2018-12-12T22:31:29.868Z,36.37
2018-12-12T22:34:02.432Z,37.00
2018-12-12T22:36:59.597Z,37.90
2018-12-12T22:39:27.044Z,35.60
2018-12-12T22:41:54.522Z,35.40
2018-12-12T22:44:21.962Z,35.03
2018-12-12T22:46:49.376Z,33.77
2018-12-12T22:49:16.813Z,34.30
2018-12-12T22:51:44.279Z,33.23
2018-12-12T22:54:11.713Z,33.03
2018-12-12T22:56:39.183Z,32.13
2018-12-12T22:59:16.060Z,32.50
2018-12-12T23:01:41.508Z,30.17
2018-12-12T23:04:08.959Z,32.53
2018-12-12T23:06:36.463Z,30.97
2018-12-12T23:09:03.834Z,29.40
2018-12-12T23:11:31.282Z,29.47
2018-12-12T23:13:58.741Z,30.37
2018-12-12T23:16:26.209Z,28.47
2018-12-12T23:18:53.626Z,29.23
2018-12-12T23:21:21.030Z,28.30
2018-12-12T23:23:48.476Z,27.53
2018-12-12T23:26:15.906Z,27.30
2018-12-12T23:28:43.353Z,26.30
2018-12-12T23:31:10.807Z,26.00
2018-12-12T23:33:40.885Z,26.30
2018-12-12T23:36:09.717Z,25.50
2018-12-12T23:38:41.227Z,25.03
2018-12-12T23:41:04.547Z,25.63
2018-12-12T23:43:31.997Z,26.57
2018-12-12T23:45:59.415Z,24.63
2018-12-12T23:48:26.843Z,25.27
2018-12-12T23:50:54.292Z,25.97
2018-12-12T23:53:35.015Z,24.53
2018-12-12T23:56:05.173Z,24.73
2018-12-12T23:58:32.613Z,25.30
